sensor_id;sensor_type;location;lat;lon;timestamp;pressure;altitude;pressure_sealevel;temperature;humidity
15932;BME280;8065;49.520;11.284;2023-09-30T00:00:04;98134.19;;;21.26;75.00
15932;BME280;8065;49.520;11.284;2023-09-30T00:02:34;98128.84;;;21.34;74.99
15932;BME280;8065;49.520;11.284;2023-09-30T00:05:02;98130.06;;;21.40;74.70
15932;BME280;8065;49.520;11.284;2023-09-30T00:07:31;98126.56;;;21.36;74.50
15932;BME280;8065;49.520;11.284;2023-09-30T00:09:59;98131.16;;;21.32;74.45
15932;BME280;8065;49.520;11.284;2023-09-30T00:12:28;98129.19;;;21.29;74.90
15932;BME280;8065;49.520;11.284;2023-09-30T00:14:56;98123.13;;;21.05;75.93
15932;BME280;8065;49.520;11.284;2023-09-30T00:17:27;98127.63;;;20.90;76.70
15932;BME280;8065;49.520;11.284;2023-09-30T00:19:56;98129.13;;;20.88;76.76
15932;BME280;8065;49.520;11.284;2023-09-30T00:22:24;98122.91;;;20.84;77.76
15932;BME280;8065;49.520;11.284;2023-09-30T00:24:53;98123.03;;;20.94;76.39
15932;BME280;8065;49.520;11.284;2023-09-30T00:27:22;98126.13;;;20.97;76.60
15932;BME280;8065;49.520;11.284;2023-09-30T00:29:50;98127.69;;;20.98;76.87
15932;BME280;8065;49.520;11.284;2023-09-30T00:32:18;98123.09;;;21.02;76.27
15932;BME280;8065;49.520;11.284;2023-09-30T00:34:49;98133.88;;;20.98;76.82
15932;BME280;8065;49.520;11.284;2023-09-30T00:37:19;98136.97;;;21.00;76.32
15932;BME280;8065;49.520;11.284;2023-09-30T00:39:47;98129.19;;;20.95;76.44
15932;BME280;8065;49.520;11.284;2023-09-30T00:42:15;98125.97;;;20.79;77.52
15932;BME280;8065;49.520;11.284;2023-09-30T00:44:45;98132.84;;;20.73;77.76
15932;BME280;8065;49.520;11.284;2023-09-30T00:47:14;98132.94;;;20.83;78.01
15932;BME280;8065;49.520;11.284;2023-09-30T00:49:43;98134.56;;;20.91;77.88
15932;BME280;8065;49.520;11.284;2023-09-30T00:52:14;98132.34;;;21.01;77.28
15932;BME280;8065;49.520;11.284;2023-09-30T00:54:42;98125.50;;;21.10;76.45
15932;BME280;8065;49.520;11.284;2023-09-30T00:57:11;98134.06;;;21.16;76.88
15932;BME280;8065;49.520;11.284;2023-09-30T00:59:40;98126.41;;;21.21;77.52
15932;BME280;8065;49.520;11.284;2023-09-30T01:02:08;98125.50;;;21.10;78.05
15932;BME280;8065;49.520;11.284;2023-09-30T01:04:37;98130.91;;;21.10;77.81
15932;BME280;8065;49.520;11.284;2023-09-30T01:07:05;98125.63;;;21.21;77.81
15932;BME280;8065;49.520;11.284;2023-09-30T01:09:36;98126.34;;;21.18;78.05
15932;BME280;8065;49.520;11.284;2023-09-30T01:12:06;98126.31;;;21.14;78.39
15932;BME280;8065;49.520;11.284;2023-09-30T01:14:35;98124.84;;;21.20;77.69
15932;BME280;8065;49.520;11.284;2023-09-30T01:17:05;98123.63;;;21.14;77.99
15932;BME280;8065;49.520;11.284;2023-09-30T01:19:38;98130.56;;;21.15;77.95
15932;BME280;8065;49.520;11.284;2023-09-30T01:22:10;98128.22;;;21.10;78.49
15932;BME280;8065;49.520;11.284;2023-09-30T01:24:39;98126.25;;;21.07;78.34
15932;BME280;8065;49.520;11.284;2023-09-30T01:27:08;98124.13;;;21.23;78.14
15932;BME280;8065;49.520;11.284;2023-09-30T01:29:38;98127.47;;;21.13;78.37
15932;BME280;8065;49.520;11.284;2023-09-30T01:32:06;98123.72;;;21.21;78.09
15932;BME280;8065;49.520;11.284;2023-09-30T01:34:35;98125.50;;;21.10;79.05
15932;BME280;8065;49.520;11.284;2023-09-30T01:37:03;98131.91;;;21.29;78.32
15932;BME280;8065;49.520;11.284;2023-09-30T01:39:35;98131.91;;;21.29;78.89
15932;BME280;8065;49.520;11.284;2023-09-30T01:42:04;98135.66;;;21.20;79.00
15932;BME280;8065;49.520;11.284;2023-09-30T01:44:32;98135.66;;;21.20;78.83
15932;BME280;8065;49.520;11.284;2023-09-30T01:47:01;98133.28;;;21.15;79.19
15932;BME280;8065;49.520;11.284;2023-09-30T01:49:29;98128.69;;;21.19;79.08
15932;BME280;8065;49.520;11.284;2023-09-30T01:51:57;98125.63;;;21.21;78.69
15932;BME280;8065;49.520;11.284;2023-09-30T01:54:26;98133.94;;;21.05;79.14
15932;BME280;8065;49.520;11.284;2023-09-30T01:56:57;98134.19;;;21.26;78.25
15932;BME280;8065;49.520;11.284;2023-09-30T01:59:25;98139.50;;;21.19;78.89
15932;BME280;8065;49.520;11.284;2023-09-30T02:01:54;98134.84;;;21.16;79.10
15932;BME280;8065;49.520;11.284;2023-09-30T02:04:22;98134.09;;;21.19;79.41
15932;BME280;8065;49.520;11.284;2023-09-30T02:06:50;98131.84;;;21.25;78.57
15932;BME280;8065;49.520;11.284;2023-09-30T02:09:18;98136.84;;;21.23;78.61
15932;BME280;8065;49.520;11.284;2023-09-30T02:11:47;98135.78;;;21.31;79.16
15932;BME280;8065;49.520;11.284;2023-09-30T02:14:18;98140.81;;;21.33;78.66
15932;BME280;8065;49.520;11.284;2023-09-30T02:16:46;98136.63;;;21.39;79.00
15932;BME280;8065;49.520;11.284;2023-09-30T02:19:14;98143.19;;;21.38;79.03
15932;BME280;8065;49.520;11.284;2023-09-30T02:21:42;98137.47;;;21.46;77.93
15932;BME280;8065;49.520;11.284;2023-09-30T02:24:11;98146.75;;;21.49;78.17
15932;BME280;8065;49.520;11.284;2023-09-30T02:26:39;98147.16;;;21.51;78.27
15932;BME280;8065;49.520;11.284;2023-09-30T02:29:08;98136.81;;;21.60;77.79
15932;BME280;8065;49.520;11.284;2023-09-30T02:31:39;98144.47;;;21.51;78.08
15932;BME280;8065;49.520;11.284;2023-09-30T02:34:08;98146.69;;;21.42;78.59
15932;BME280;8065;49.520;11.284;2023-09-30T02:36:36;98146.75;;;21.49;78.25
15932;BME280;8065;49.520;11.284;2023-09-30T02:39:05;98142.16;;;21.53;78.00
15932;BME280;8065;49.520;11.284;2023-09-30T02:41:34;98132.91;;;21.54;78.59
15932;BME280;8065;49.520;11.284;2023-09-30T02:46:31;98147.16;;;21.51;78.39
15932;BME280;8065;49.520;11.284;2023-09-30T02:49:03;98153.66;;;21.43;79.87
15932;BME280;8065;49.520;11.284;2023-09-30T02:51:31;98149.88;;;21.51;80.01
15932;BME280;8065;49.520;11.284;2023-09-30T02:54:00;98163.72;;;21.46;80.98
15932;BME280;8065;49.520;11.284;2023-09-30T02:56:28;98166.44;;;21.46;80.98
15932;BME280;8065;49.520;11.284;2023-09-30T02:58:56;98165.69;;;21.49;81.75
15932;BME280;8065;49.520;11.284;2023-09-30T03:01:24;98172.97;;;21.41;82.58
15932;BME280;8065;49.520;11.284;2023-09-30T03:03:53;98179.91;;;21.39;82.94
15932;BME280;8065;49.520;11.284;2023-09-30T03:06:24;98173.63;;;21.31;84.11
15932;BME280;8065;49.520;11.284;2023-09-30T03:08:52;98162.84;;;21.35;84.24
15932;BME280;8065;49.520;11.284;2023-09-30T03:11:21;98153.53;;;21.29;84.79
15932;BME280;8065;49.520;11.284;2023-09-30T03:13:49;98150.03;;;21.28;84.73
15932;BME280;8065;49.520;11.284;2023-09-30T03:16:17;98151.16;;;21.23;84.98
15932;BME280;8065;49.520;11.284;2023-09-30T03:18:46;98156.06;;;21.14;85.44
15932;BME280;8065;49.520;11.284;2023-09-30T03:21:14;98153.34;;;21.14;85.59
15932;BME280;8065;49.520;11.284;2023-09-30T03:23:45;98159.91;;;21.13;85.29
15932;BME280;8065;49.520;11.284;2023-09-30T03:26:14;98156.31;;;21.02;86.66
15932;BME280;8065;49.520;11.284;2023-09-30T03:28:42;98157.13;;;21.06;86.47
15932;BME280;8065;49.520;11.284;2023-09-30T03:31:11;98162.53;;;21.06;86.50
15932;BME280;8065;49.520;11.284;2023-09-30T03:33:39;98160.16;;;21.01;87.01
15932;BME280;8065;49.520;11.284;2023-09-30T03:36:08;98155.38;;;20.87;87.30
15932;BME280;8065;49.520;11.284;2023-09-30T03:38:37;98160.03;;;20.90;86.99
15932;BME280;8065;49.520;11.284;2023-09-30T03:41:09;98161.63;;;20.95;87.15
15932;BME280;8065;49.520;11.284;2023-09-30T03:43:38;98164.00;;;21.00;87.83
15932;BME280;8065;49.520;11.284;2023-09-30T03:46:06;98167.72;;;20.88;88.78
15932;BME280;8065;49.520;11.284;2023-09-30T03:48:35;98175.06;;;20.88;87.44
15932;BME280;8065;49.520;11.284;2023-09-30T03:51:08;98175.38;;;20.83;87.45
15932;BME280;8065;49.520;11.284;2023-09-30T03:56:09;98182.94;;;20.67;86.94
15932;BME280;8065;49.520;11.284;2023-09-30T03:58:38;98178.31;;;20.67;86.85
15932;BME280;8065;49.520;11.284;2023-09-30T04:01:07;98177.84;;;20.61;85.56
15932;BME280;8065;49.520;11.284;2023-09-30T04:03:36;98174.13;;;20.43;86.37
15932;BME280;8065;49.520;11.284;2023-09-30T04:06:05;98183.38;;;20.42;85.98
15932;BME280;8065;49.520;11.284;2023-09-30T04:08:34;98190.94;;;20.33;86.13
15932;BME280;8065;49.520;11.284;2023-09-30T04:11:04;98193.63;;;20.33;86.06
15932;BME280;8065;49.520;11.284;2023-09-30T04:13:34;98194.66;;;20.25;85.92
15932;BME280;8065;49.520;11.284;2023-09-30T04:16:03;98201.81;;;20.14;85.72
15932;BME280;8065;49.520;11.284;2023-09-30T04:18:31;98203.03;;;20.16;85.92
15932;BME280;8065;49.520;11.284;2023-09-30T04:20:59;98198.41;;;20.17;85.22
15932;BME280;8065;49.520;11.284;2023-09-30T04:23:29;98200.63;;;20.11;85.30
15932;BME280;8065;49.520;11.284;2023-09-30T04:25:58;98203.47;;;19.95;85.39
15932;BME280;8065;49.520;11.284;2023-09-30T04:28:26;98202.53;;;20.11;85.34
15932;BME280;8065;49.520;11.284;2023-09-30T04:30:58;98204.31;;;20.00;85.42
15932;BME280;8065;49.520;11.284;2023-09-30T04:33:28;98205.13;;;20.04;84.78
15932;BME280;8065;49.520;11.284;2023-09-30T04:35:56;98205.41;;;19.72;86.86
15932;BME280;8065;49.520;11.284;2023-09-30T04:38:24;98210.28;;;19.86;85.99
15932;BME280;8065;49.520;11.284;2023-09-30T04:40:53;98218.47;;;19.70;86.96
15932;BME280;8065;49.520;11.284;2023-09-30T04:43:23;98217.81;;;19.77;86.50
15932;BME280;8065;49.520;11.284;2023-09-30T04:45:54;98223.88;;;19.70;86.76
15932;BME280;8065;49.520;11.284;2023-09-30T04:48:26;98231.97;;;19.70;86.90
15932;BME280;8065;49.520;11.284;2023-09-30T04:50:54;98230.13;;;19.74;86.09
15932;BME280;8065;49.520;11.284;2023-09-30T04:53:23;98238.63;;;19.76;86.49
15932;BME280;8065;49.520;11.284;2023-09-30T04:55:51;98234.72;;;19.74;86.39
15932;BME280;8065;49.520;11.284;2023-09-30T04:58:20;98231.97;;;19.70;86.45
15932;BME280;8065;49.520;11.284;2023-09-30T05:00:49;98233.75;;;19.62;86.22
15932;BME280;8065;49.520;11.284;2023-09-30T05:03:17;98242.06;;;19.54;85.70
15932;BME280;8065;49.520;11.284;2023-09-30T05:05:48;98255.69;;;19.42;84.89
15932;BME280;8065;49.520;11.284;2023-09-30T05:08:18;98259.09;;;19.19;85.19
15932;BME280;8065;49.520;11.284;2023-09-30T05:10:46;98256.75;;;19.18;84.90
15932;BME280;8065;49.520;11.284;2023-09-30T05:13:15;98275.81;;;19.09;85.42
15932;BME280;8065;49.520;11.284;2023-09-30T05:15:43;98268.16;;;19.11;84.80
15932;BME280;8065;49.520;11.284;2023-09-30T05:18:12;98267.31;;;19.07;85.30
15932;BME280;8065;49.520;11.284;2023-09-30T05:20:40;98277.28;;;19.03;84.70
15932;BME280;8065;49.520;11.284;2023-09-30T05:23:11;98282.78;;;19.10;84.56
15932;BME280;8065;49.520;11.284;2023-09-30T05:25:40;98292.66;;;19.03;84.06
15932;BME280;8065;49.520;11.284;2023-09-30T05:28:08;98286.06;;;19.00;84.38
15932;BME280;8065;49.520;11.284;2023-09-30T05:30:38;98299.59;;;19.04;84.29
15932;BME280;8065;49.520;11.284;2023-09-30T05:33:09;98300.84;;;19.10;83.70
15932;BME280;8065;49.520;11.284;2023-09-30T05:35:40;98302.84;;;19.13;83.80
15932;BME280;8065;49.520;11.284;2023-09-30T05:38:11;98301.06;;;19.20;83.53
15932;BME280;8065;49.520;11.284;2023-09-30T05:40:39;98311.72;;;19.13;83.44
15932;BME280;8065;49.520;11.284;2023-09-30T05:43:08;98314.91;;;19.19;83.17
15932;BME280;8065;49.520;11.284;2023-09-30T05:45:39;98321.34;;;19.14;83.33
15932;BME280;8065;49.520;11.284;2023-09-30T05:48:14;98334.41;;;19.12;83.56
15932;BME280;8065;49.520;11.284;2023-09-30T05:50:43;98346.88;;;19.20;83.39
15932;BME280;8065;49.520;11.284;2023-09-30T05:53:15;98341.50;;;19.20;83.91
15932;BME280;8065;49.520;11.284;2023-09-30T05:55:43;98344.47;;;19.15;84.75
15932;BME280;8065;49.520;11.284;2023-09-30T05:58:13;98335.84;;;19.25;84.22
15932;BME280;8065;49.520;11.284;2023-09-30T06:00:42;98325.41;;;19.05;85.39
15932;BME280;8065;49.520;11.284;2023-09-30T06:03:10;98340.06;;;19.07;85.97
15932;BME280;8065;49.520;11.284;2023-09-30T06:05:39;98343.19;;;19.09;85.66
15932;BME280;8065;49.520;11.284;2023-09-30T06:08:09;98344.47;;;19.15;85.41
15932;BME280;8065;49.520;11.284;2023-09-30T06:10:42;98338.22;;;19.11;85.87
15932;BME280;8065;49.520;11.284;2023-09-30T06:13:12;98337.69;;;19.21;85.36
15932;BME280;8065;49.520;11.284;2023-09-30T06:15:42;98336.22;;;19.08;86.21
15932;BME280;8065;49.520;11.284;2023-09-30T06:18:12;98336.81;;;19.17;85.02
15932;BME280;8065;49.520;11.284;2023-09-30T06:20:40;98341.78;;;19.15;85.37
15932;BME280;8065;49.520;11.284;2023-09-30T06:23:09;98334.41;;;19.12;85.87
15932;BME280;8065;49.520;11.284;2023-09-30T06:25:38;98342.63;;;19.19;85.63
15932;BME280;8065;49.520;11.284;2023-09-30T06:28:08;98345.34;;;19.19;86.48
15932;BME280;8065;49.520;11.284;2023-09-30T06:30:40;98352.44;;;19.27;86.07
15932;BME280;8065;49.520;11.284;2023-09-30T06:33:10;98354.84;;;19.32;85.28
15932;BME280;8065;49.520;11.284;2023-09-30T06:35:40;98367.53;;;19.32;84.83
15932;BME280;8065;49.520;11.284;2023-09-30T06:38:16;98369.88;;;19.33;84.66
15932;BME280;8065;49.520;11.284;2023-09-30T06:40:44;98378.84;;;19.38;83.78
15932;BME280;8065;49.520;11.284;2023-09-30T06:43:16;98376.00;;;19.30;84.52
15932;BME280;8065;49.520;11.284;2023-09-30T06:45:44;98370.31;;;19.36;84.38
15932;BME280;8065;49.520;11.284;2023-09-30T06:48:14;98370.41;;;19.39;83.84
15932;BME280;8065;49.520;11.284;2023-09-30T06:50:46;98385.97;;;19.30;84.74
15932;BME280;8065;49.520;11.284;2023-09-30T06:53:14;98379.47;;;19.31;84.44
15932;BME280;8065;49.520;11.284;2023-09-30T06:55:43;98384.94;;;19.35;84.46
15932;BME280;8065;49.520;11.284;2023-09-30T06:58:11;98397.97;;;19.32;85.06
15932;BME280;8065;49.520;11.284;2023-09-30T07:00:47;98395.78;;;19.38;85.14
15932;BME280;8065;49.520;11.284;2023-09-30T07:03:17;98400.81;;;19.40;85.25
15932;BME280;8065;49.520;11.284;2023-09-30T07:05:46;98397.44;;;19.43;84.71
15932;BME280;8065;49.520;11.284;2023-09-30T07:08:17;98396.00;;;19.49;84.39
15932;BME280;8065;49.520;11.284;2023-09-30T07:10:46;98394.44;;;19.48;84.67
15932;BME280;8065;49.520;11.284;2023-09-30T07:13:18;98398.22;;;19.43;85.07
15932;BME280;8065;49.520;11.284;2023-09-30T07:15:48;98399.78;;;19.44;85.77
15932;BME280;8065;49.520;11.284;2023-09-30T07:18:17;98402.38;;;19.41;86.37
15932;BME280;8065;49.520;11.284;2023-09-30T07:20:45;98392.19;;;19.50;85.30
15932;BME280;8065;49.520;11.284;2023-09-30T07:23:14;98398.28;;;19.47;85.86
15932;BME280;8065;49.520;11.284;2023-09-30T07:25:42;98407.94;;;19.48;86.23
15932;BME280;8065;49.520;11.284;2023-09-30T07:28:10;98412.19;;;19.49;87.06
15932;BME280;8065;49.520;11.284;2023-09-30T07:30:39;98411.94;;;19.54;86.08
15932;BME280;8065;49.520;11.284;2023-09-30T07:33:10;98417.22;;;19.66;86.45
15932;BME280;8065;49.520;11.284;2023-09-30T07:35:38;98418.63;;;19.60;86.11
15932;BME280;8065;49.520;11.284;2023-09-30T07:38:07;98419.41;;;19.80;85.21
15932;BME280;8065;49.520;11.284;2023-09-30T07:40:35;98426.28;;;19.96;84.35
15932;BME280;8065;49.520;11.284;2023-09-30T07:43:04;98425.63;;;20.03;84.00
15932;BME280;8065;49.520;11.284;2023-09-30T07:45:32;98425.13;;;20.17;83.13
15932;BME280;8065;49.520;11.284;2023-09-30T07:48:00;98431.50;;;20.28;83.14
15932;BME280;8065;49.520;11.284;2023-09-30T07:50:32;98432.50;;;20.39;81.65
15932;BME280;8065;49.520;11.284;2023-09-30T07:53:02;98427.94;;;20.43;81.79
15932;BME280;8065;49.520;11.284;2023-09-30T07:55:30;98431.06;;;20.45;81.64
15932;BME280;8065;49.520;11.284;2023-09-30T07:57:59;98438.03;;;20.46;81.63
15932;BME280;8065;49.520;11.284;2023-09-30T08:00:28;98432.03;;;20.56;81.48
15932;BME280;8065;49.520;11.284;2023-09-30T08:02:59;98437.59;;;20.25;81.45
15932;BME280;8065;49.520;11.284;2023-09-30T08:05:28;98436.47;;;20.45;80.79
15932;BME280;8065;49.520;11.284;2023-09-30T08:07:59;98441.44;;;20.43;81.15
15932;BME280;8065;49.520;11.284;2023-09-30T08:10:27;98442.72;;;20.49;79.79
15932;BME280;8065;49.520;11.284;2023-09-30T08:12:57;98445.66;;;20.64;79.75
15932;BME280;8065;49.520;11.284;2023-09-30T08:15:27;98439.13;;;20.65;78.97
15932;BME280;8065;49.520;11.284;2023-09-30T08:17:56;98440.00;;;20.49;79.79
15932;BME280;8065;49.520;11.284;2023-09-30T08:20:24;98443.81;;;20.68;79.22
15932;BME280;8065;49.520;11.284;2023-09-30T08:22:53;98452.75;;;20.72;77.57
15932;BME280;8065;49.520;11.284;2023-09-30T08:25:24;98447.25;;;20.91;76.51
15932;BME280;8065;49.520;11.284;2023-09-30T08:27:52;98453.59;;;21.02;76.44
15932;BME280;8065;49.520;11.284;2023-09-30T08:30:21;98458.44;;;21.16;76.04
15932;BME280;8065;49.520;11.284;2023-09-30T08:32:49;98466.19;;;21.17;75.71
15932;BME280;8065;49.520;11.284;2023-09-30T08:35:17;98461.66;;;21.21;74.73
15932;BME280;8065;49.520;11.284;2023-09-30T08:37:46;98452.50;;;21.30;74.33
15932;BME280;8065;49.520;11.284;2023-09-30T08:40:14;98455.25;;;21.59;74.44
15932;BME280;8065;49.520;11.284;2023-09-30T08:42:51;98467.41;;;21.76;74.16
15932;BME280;8065;49.520;11.284;2023-09-30T08:45:20;98466.78;;;21.86;73.92
15932;BME280;8065;49.520;11.284;2023-09-30T08:47:49;98461.91;;;21.99;73.75
15932;BME280;8065;49.520;11.284;2023-09-30T08:50:19;98470.44;;;22.01;74.85
15932;BME280;8065;49.520;11.284;2023-09-30T08:52:48;98455.41;;;22.37;74.03
15932;BME280;8065;49.520;11.284;2023-09-30T08:55:18;98444.47;;;22.71;72.69
15932;BME280;8065;49.520;11.284;2023-09-30T08:57:50;98450.34;;;22.76;71.10
15932;BME280;8065;49.520;11.284;2023-09-30T09:00:20;98446.44;;;22.74;70.55
15932;BME280;8065;49.520;11.284;2023-09-30T09:02:49;98452.44;;;22.49;71.38
15932;BME280;8065;49.520;11.284;2023-09-30T09:05:18;98451.47;;;22.31;71.41
15932;BME280;8065;49.520;11.284;2023-09-30T09:07:46;98451.69;;;22.52;69.61
15932;BME280;8065;49.520;11.284;2023-09-30T09:10:15;98448.97;;;22.97;68.79
15932;BME280;8065;49.520;11.284;2023-09-30T09:12:57;98441.84;;;23.29;67.17
15932;BME280;8065;49.520;11.284;2023-09-30T09:15:27;98438.59;;;23.68;67.04
15932;BME280;8065;49.520;11.284;2023-09-30T09:17:56;98431.00;;;24.09;65.20
15932;BME280;8065;49.520;11.284;2023-09-30T09:20:25;98438.78;;;24.21;66.04
15932;BME280;8065;49.520;11.284;2023-09-30T09:22:55;98437.22;;;24.20;66.24
15932;BME280;8065;49.520;11.284;2023-09-30T09:25:25;98436.28;;;23.73;65.01
15932;BME280;8065;49.520;11.284;2023-09-30T09:27:54;98427.06;;;23.96;65.25
15932;BME280;8065;49.520;11.284;2023-09-30T09:30:26;98431.03;;;24.27;64.51
15932;BME280;8065;49.520;11.284;2023-09-30T09:32:58;98424.06;;;24.36;64.42
15932;BME280;8065;49.520;11.284;2023-09-30T09:35:27;98427.22;;;24.60;64.30
15932;BME280;8065;49.520;11.284;2023-09-30T09:37:59;98428.00;;;24.60;63.65
15932;BME280;8065;49.520;11.284;2023-09-30T09:40:28;98431.84;;;24.41;64.41
15932;BME280;8065;49.520;11.284;2023-09-30T09:42:58;98431.88;;;24.56;64.97
15932;BME280;8065;49.520;11.284;2023-09-30T09:45:33;98428.00;;;24.78;64.30
15932;BME280;8065;49.520;11.284;2023-09-30T09:48:03;98432.66;;;24.84;64.08
15932;BME280;8065;49.520;11.284;2023-09-30T09:50:32;98424.91;;;24.90;63.08
15932;BME280;8065;49.520;11.284;2023-09-30T09:53:01;98427.97;;;24.53;64.49
15932;BME280;8065;49.520;11.284;2023-09-30T09:55:32;98438.44;;;24.37;63.46
15932;BME280;8065;49.520;11.284;2023-09-30T10:00:28;98424.75;;;23.98;61.26
15932;BME280;8065;49.520;11.284;2023-09-30T10:03:02;98418.19;;;24.06;61.04
15932;BME280;8065;49.520;11.284;2023-09-30T10:05:31;98423.25;;;24.14;60.62
15932;BME280;8065;49.520;11.284;2023-09-30T10:08:02;98427.94;;;24.32;61.05
15932;BME280;8065;49.520;11.284;2023-09-30T10:10:36;98428.31;;;24.23;62.08
15932;BME280;8065;49.520;11.284;2023-09-30T10:13:04;98437.19;;;24.06;61.89
15932;BME280;8065;49.520;11.284;2023-09-30T10:15:37;98442.91;;;23.79;63.56
15932;BME280;8065;49.520;11.284;2023-09-30T10:18:11;98452.56;;;23.70;62.51
15932;BME280;8065;49.520;11.284;2023-09-30T10:20:41;98451.06;;;23.79;62.72
15932;BME280;8065;49.520;11.284;2023-09-30T10:23:34;98448.63;;;23.60;63.79
15932;BME280;8065;49.520;11.284;2023-09-30T10:26:15;98457.94;;;23.59;62.95
15932;BME280;8065;49.520;11.284;2023-09-30T10:28:45;98457.56;;;23.64;62.73
15932;BME280;8065;49.520;11.284;2023-09-30T10:31:16;98466.34;;;23.40;60.41
15932;BME280;8065;49.520;11.284;2023-09-30T10:36:46;98473.38;;;23.51;61.20
15932;BME280;8065;49.520;11.284;2023-09-30T10:39:52;98473.75;;;23.50;60.79
15932;BME280;8065;49.520;11.284;2023-09-30T10:42:48;98469.50;;;23.52;61.26
15932;BME280;8065;49.520;11.284;2023-09-30T10:45:42;98471.09;;;23.57;61.68
15932;BME280;8065;49.520;11.284;2023-09-30T10:48:33;98472.63;;;23.54;62.73
15932;BME280;8065;49.520;11.284;2023-09-30T10:51:18;98470.75;;;23.62;60.72
15932;BME280;8065;49.520;11.284;2023-09-30T10:53:51;98476.94;;;23.59;59.03
15932;BME280;8065;49.520;11.284;2023-09-30T10:56:22;98466.97;;;23.84;59.50
15932;BME280;8065;49.520;11.284;2023-09-30T10:58:53;98469.72;;;23.88;58.48
15932;BME280;8065;49.520;11.284;2023-09-30T11:01:22;98462.75;;;23.94;57.06
15932;BME280;8065;49.520;11.284;2023-09-30T11:03:59;98463.50;;;23.88;55.62
15932;BME280;8065;49.520;11.284;2023-09-30T11:06:29;98459.22;;;23.86;56.40
15932;BME280;8065;49.520;11.284;2023-09-30T11:09:00;98461.97;;;23.90;56.89
15932;BME280;8065;49.520;11.284;2023-09-30T11:11:36;98457.25;;;23.76;57.25
15932;BME280;8065;49.520;11.284;2023-09-30T11:14:17;98437.47;;;23.79;57.88
15932;BME280;8065;49.520;11.284;2023-09-30T11:16:46;98438.63;;;23.78;58.68
15932;BME280;8065;49.520;11.284;2023-09-30T11:19:15;98440.19;;;23.79;57.74
15932;BME280;8065;49.520;11.284;2023-09-30T11:21:46;98444.88;;;23.90;58.28
15932;BME280;8065;49.520;11.284;2023-09-30T11:24:18;98436.31;;;23.80;59.55
15932;BME280;8065;49.520;11.284;2023-09-30T11:26:47;98438.28;;;23.83;58.23
15932;BME280;8065;49.520;11.284;2023-09-30T11:29:21;98433.97;;;23.75;59.45
15932;BME280;8065;49.520;11.284;2023-09-30T11:31:50;98430.84;;;23.73;59.74
15932;BME280;8065;49.520;11.284;2023-09-30T11:34:19;98419.25;;;23.83;59.98
15932;BME280;8065;49.520;11.284;2023-09-30T11:36:49;98427.06;;;23.96;60.00
15932;BME280;8065;49.520;11.284;2023-09-30T11:39:27;98421.63;;;23.96;58.36
15932;BME280;8065;49.520;11.284;2023-09-30T11:41:56;98423.97;;;23.97;59.32
15932;BME280;8065;49.520;11.284;2023-09-30T11:44:26;98419.72;;;24.07;59.12
15932;BME280;8065;49.520;11.284;2023-09-30T11:46:57;98414.31;;;24.07;59.01
15932;BME280;8065;49.520;11.284;2023-09-30T11:49:30;98417.72;;;23.86;60.13
15932;BME280;8065;49.520;11.284;2023-09-30T11:52:01;98423.91;;;23.79;59.63
15932;BME280;8065;49.520;11.284;2023-09-30T11:54:34;98417.75;;;23.90;59.00
15932;BME280;8065;49.520;11.284;2023-09-30T11:57:04;98416.59;;;23.98;59.20
15932;BME280;8065;49.520;11.284;2023-09-30T11:59:35;98422.06;;;24.05;59.21
15932;BME280;8065;49.520;11.284;2023-09-30T12:02:04;98424.03;;;24.15;58.12
15932;BME280;8065;49.520;11.284;2023-09-30T12:04:34;98431.00;;;24.12;58.16
15932;BME280;8065;49.520;11.284;2023-09-30T12:07:03;98422.47;;;24.14;58.30
15932;BME280;8065;49.520;11.284;2023-09-30T12:09:35;98425.03;;;23.75;58.34
15932;BME280;8065;49.520;11.284;2023-09-30T12:12:05;98430.53;;;23.85;57.02
15932;BME280;8065;49.520;11.284;2023-09-30T12:14:35;98428.47;;;23.61;57.57
15932;BME280;8065;49.520;11.284;2023-09-30T12:17:03;98423.19;;;23.93;57.86
15932;BME280;8065;49.520;11.284;2023-09-30T12:19:32;98417.00;;;24.00;57.57
15932;BME280;8065;49.520;11.284;2023-09-30T12:22:01;98403.81;;;24.02;57.81
15932;BME280;8065;49.520;11.284;2023-09-30T12:24:29;98407.72;;;24.15;57.29
15932;BME280;8065;49.520;11.284;2023-09-30T12:27:00;98411.63;;;24.21;57.10
15932;BME280;8065;49.520;11.284;2023-09-30T12:29:30;98405.81;;;24.33;56.87
15932;BME280;8065;49.520;11.284;2023-09-30T12:31:58;98410.91;;;24.49;56.58
15932;BME280;8065;49.520;11.284;2023-09-30T12:34:26;98407.03;;;24.64;56.50
15932;BME280;8065;49.520;11.284;2023-09-30T12:36:56;98403.13;;;24.87;55.24
15932;BME280;8065;49.520;11.284;2023-09-30T12:39:25;98398.88;;;24.96;55.16
15932;BME280;8065;49.520;11.284;2023-09-30T12:41:55;98392.25;;;24.79;56.64
15932;BME280;8065;49.520;11.284;2023-09-30T12:44:26;98391.88;;;24.95;55.30
15932;BME280;8065;49.520;11.284;2023-09-30T12:46:55;98394.53;;;25.24;54.51
15932;BME280;8065;49.520;11.284;2023-09-30T12:49:23;98398.75;;;25.46;53.78
15932;BME280;8065;49.520;11.284;2023-09-30T12:51:51;98399.09;;;25.69;54.47
15932;BME280;8065;49.520;11.284;2023-09-30T12:54:19;98392.50;;;25.67;53.87
15932;BME280;8065;49.520;11.284;2023-09-30T12:56:48;98402.56;;;25.80;53.24
15932;BME280;8065;49.520;11.284;2023-09-30T12:59:17;98397.16;;;25.59;53.12
15932;BME280;8065;49.520;11.284;2023-09-30T13:01:52;98393.66;;;25.66;52.40
15932;BME280;8065;49.520;11.284;2023-09-30T13:04:22;98399.09;;;25.59;53.97
15932;BME280;8065;49.520;11.284;2023-09-30T13:06:50;98390.94;;;25.62;54.88
15932;BME280;8065;49.520;11.284;2023-09-30T13:09:19;98386.59;;;25.83;54.78
15932;BME280;8065;49.520;11.284;2023-09-30T13:11:48;98383.41;;;25.95;54.63
15932;BME280;8065;49.520;11.284;2023-09-30T13:14:17;98393.41;;;26.12;56.15
15932;BME280;8065;49.520;11.284;2023-09-30T13:16:45;98391.03;;;26.18;55.92
15932;BME280;8065;49.520;11.284;2023-09-30T13:19:16;98382.41;;;26.26;54.56
15932;BME280;8065;49.520;11.284;2023-09-30T13:21:46;98391.66;;;26.47;53.95
15932;BME280;8065;49.520;11.284;2023-09-30T13:24:15;98386.16;;;26.54;53.45